sensor_id;sensor_type;location;lat;lon;timestamp;P1;durP1;ratioP1;P2;durP2;ratioP2
14732;SDS011;7457;50.960;6.830;2023-04-25T00:01:04;9.45;;;6.85;;
14732;SDS011;7457;50.960;6.830;2023-04-25T00:03:31;13.95;;;6.80;;
14732;SDS011;7457;50.960;6.830;2023-04-25T00:05:57;10.13;;;6.05;;
14732;SDS011;7457;50.960;6.830;2023-04-25T00:08:26;14.05;;;6.72;;
14732;SDS011;7457;50.960;6.830;2023-04-25T00:10:53;12.10;;;5.78;;
14732;SDS011;7457;50.960;6.830;2023-04-25T00:13:19;14.77;;;6.68;;
14732;SDS011;7457;50.960;6.830;2023-04-25T00:15:45;13.40;;;5.82;;
14732;SDS011;7457;50.960;6.830;2023-04-25T00:18:11;11.48;;;6.78;;
14732;SDS011;7457;50.960;6.830;2023-04-25T00:20:37;12.95;;;5.85;;
14732;SDS011;7457;50.960;6.830;2023-04-25T00:23:02;12.50;;;6.07;;
14732;SDS011;7457;50.960;6.830;2023-04-25T00:25:30;13.15;;;6.60;;
14732;SDS011;7457;50.960;6.830;2023-04-25T00:27:56;11.15;;;5.68;;
14732;SDS011;7457;50.960;6.830;2023-04-25T00:30:21;11.40;;;6.63;;
14732;SDS011;7457;50.960;6.830;2023-04-25T00:32:47;13.85;;;6.57;;
14732;SDS011;7457;50.960;6.830;2023-04-25T00:35:13;11.95;;;5.95;;
14732;SDS011;7457;50.960;6.830;2023-04-25T00:37:39;9.45;;;5.53;;
14732;SDS011;7457;50.960;6.830;2023-04-25T00:40:06;20.55;;;6.55;;
14732;SDS011;7457;50.960;6.830;2023-04-25T00:42:32;13.00;;;5.40;;
14732;SDS011;7457;50.960;6.830;2023-04-25T00:44:58;11.48;;;6.07;;
14732;SDS011;7457;50.960;6.830;2023-04-25T00:47:25;9.90;;;5.65;;
14732;SDS011;7457;50.960;6.830;2023-04-25T00:49:51;10.90;;;6.50;;
14732;SDS011;7457;50.960;6.830;2023-04-25T00:52:18;10.48;;;5.57;;
14732;SDS011;7457;50.960;6.830;2023-04-25T00:54:44;15.30;;;6.57;;
14732;SDS011;7457;50.960;6.830;2023-04-25T00:57:10;10.57;;;5.93;;
14732;SDS011;7457;50.960;6.830;2023-04-25T00:59:36;18.02;;;6.00;;
14732;SDS011;7457;50.960;6.830;2023-04-25T01:02:03;14.00;;;6.10;;
14732;SDS011;7457;50.960;6.830;2023-04-25T01:04:29;13.35;;;5.68;;
14732;SDS011;7457;50.960;6.830;2023-04-25T01:06:55;11.48;;;6.53;;
14732;SDS011;7457;50.960;6.830;2023-04-25T01:09:22;17.23;;;6.38;;
14732;SDS011;7457;50.960;6.830;2023-04-25T01:11:48;10.50;;;5.88;;
14732;SDS011;7457;50.960;6.830;2023-04-25T01:14:14;15.95;;;7.05;;
14732;SDS011;7457;50.960;6.830;2023-04-25T01:16:40;8.13;;;5.13;;
14732;SDS011;7457;50.960;6.830;2023-04-25T01:19:09;13.13;;;6.10;;
14732;SDS011;7457;50.960;6.830;2023-04-25T01:21:38;14.57;;;5.88;;
14732;SDS011;7457;50.960;6.830;2023-04-25T01:24:05;14.00;;;6.20;;
14732;SDS011;7457;50.960;6.830;2023-04-25T01:26:31;13.05;;;6.70;;
14732;SDS011;7457;50.960;6.830;2023-04-25T01:28:58;10.02;;;5.63;;
14732;SDS011;7457;50.960;6.830;2023-04-25T01:31:24;15.52;;;6.40;;
14732;SDS011;7457;50.960;6.830;2023-04-25T01:33:51;13.80;;;5.70;;
14732;SDS011;7457;50.960;6.830;2023-04-25T01:36:17;21.25;;;7.20;;
14732;SDS011;7457;50.960;6.830;2023-04-25T01:38:43;12.43;;;6.10;;
14732;SDS011;7457;50.960;6.830;2023-04-25T01:41:11;13.55;;;6.30;;
14732;SDS011;7457;50.960;6.830;2023-04-25T01:43:37;15.07;;;7.50;;
14732;SDS011;7457;50.960;6.830;2023-04-25T01:46:02;14.68;;;6.50;;
14732;SDS011;7457;50.960;6.830;2023-04-25T01:48:28;14.10;;;6.15;;
14732;SDS011;7457;50.960;6.830;2023-04-25T01:50:54;13.05;;;6.90;;
14732;SDS011;7457;50.960;6.830;2023-04-25T01:53:20;15.02;;;6.53;;
14732;SDS011;7457;50.960;6.830;2023-04-25T01:55:45;17.73;;;7.38;;
14732;SDS011;7457;50.960;6.830;2023-04-25T01:58:11;11.20;;;5.80;;
14732;SDS011;7457;50.960;6.830;2023-04-25T02:00:38;16.30;;;6.60;;
14732;SDS011;7457;50.960;6.830;2023-04-25T02:03:04;15.02;;;6.80;;
14732;SDS011;7457;50.960;6.830;2023-04-25T02:05:37;14.07;;;7.05;;
14732;SDS011;7457;50.960;6.830;2023-04-25T02:08:07;14.38;;;6.68;;
14732;SDS011;7457;50.960;6.830;2023-04-25T02:10:33;11.07;;;5.60;;
14732;SDS011;7457;50.960;6.830;2023-04-25T02:13:00;12.48;;;6.22;;
14732;SDS011;7457;50.960;6.830;2023-04-25T02:15:26;10.75;;;6.20;;
14732;SDS011;7457;50.960;6.830;2023-04-25T02:17:51;8.88;;;5.20;;
14732;SDS011;7457;50.960;6.830;2023-04-25T02:20:18;13.10;;;6.45;;
14732;SDS011;7457;50.960;6.830;2023-04-25T02:22:45;12.20;;;5.82;;
14732;SDS011;7457;50.960;6.830;2023-04-25T02:25:11;14.10;;;5.65;;
14732;SDS011;7457;50.960;6.830;2023-04-25T02:27:37;8.35;;;5.53;;
14732;SDS011;7457;50.960;6.830;2023-04-25T02:30:03;9.25;;;4.82;;
14732;SDS011;7457;50.960;6.830;2023-04-25T02:32:30;10.93;;;5.45;;
14732;SDS011;7457;50.960;6.830;2023-04-25T02:34:55;14.73;;;6.03;;
14732;SDS011;7457;50.960;6.830;2023-04-25T02:37:23;8.05;;;4.78;;
14732;SDS011;7457;50.960;6.830;2023-04-25T02:39:49;7.35;;;5.22;;
14732;SDS011;7457;50.960;6.830;2023-04-25T02:42:15;9.48;;;5.22;;
14732;SDS011;7457;50.960;6.830;2023-04-25T02:44:40;13.70;;;5.13;;
14732;SDS011;7457;50.960;6.830;2023-04-25T02:47:06;11.23;;;5.35;;
14732;SDS011;7457;50.960;6.830;2023-04-25T02:49:32;7.05;;;5.00;;
14732;SDS011;7457;50.960;6.830;2023-04-25T02:51:57;11.50;;;5.10;;
14732;SDS011;7457;50.960;6.830;2023-04-25T02:54:23;10.63;;;5.47;;
14732;SDS011;7457;50.960;6.830;2023-04-25T02:56:49;9.75;;;5.57;;
14732;SDS011;7457;50.960;6.830;2023-04-25T02:59:14;10.45;;;5.53;;
14732;SDS011;7457;50.960;6.830;2023-04-25T03:01:40;12.75;;;5.25;;
14732;SDS011;7457;50.960;6.830;2023-04-25T03:04:06;8.73;;;5.10;;
14732;SDS011;7457;50.960;6.830;2023-04-25T03:06:31;13.57;;;6.15;;
14732;SDS011;7457;50.960;6.830;2023-04-25T03:08:57;10.57;;;5.65;;
14732;SDS011;7457;50.960;6.830;2023-04-25T03:11:24;11.82;;;6.00;;
14732;SDS011;7457;50.960;6.830;2023-04-25T03:13:50;10.07;;;5.47;;
14732;SDS011;7457;50.960;6.830;2023-04-25T03:16:16;13.43;;;5.85;;
14732;SDS011;7457;50.960;6.830;2023-04-25T03:18:42;13.40;;;6.20;;
14732;SDS011;7457;50.960;6.830;2023-04-25T03:21:07;14.40;;;5.55;;
14732;SDS011;7457;50.960;6.830;2023-04-25T03:23:33;9.32;;;5.45;;
14732;SDS011;7457;50.960;6.830;2023-04-25T03:25:58;12.23;;;6.18;;
14732;SDS011;7457;50.960;6.830;2023-04-25T03:28:24;14.30;;;6.20;;
14732;SDS011;7457;50.960;6.830;2023-04-25T03:30:50;11.82;;;5.72;;
14732;SDS011;7457;50.960;6.830;2023-04-25T03:33:16;10.25;;;5.40;;
14732;SDS011;7457;50.960;6.830;2023-04-25T03:35:41;10.52;;;5.95;;
14732;SDS011;7457;50.960;6.830;2023-04-25T03:38:07;11.98;;;6.03;;
14732;SDS011;7457;50.960;6.830;2023-04-25T03:40:33;10.23;;;5.80;;
14732;SDS011;7457;50.960;6.830;2023-04-25T03:42:59;11.85;;;4.97;;
14732;SDS011;7457;50.960;6.830;2023-04-25T03:45:24;10.48;;;5.93;;
14732;SDS011;7457;50.960;6.830;2023-04-25T03:47:50;10.73;;;6.05;;
14732;SDS011;7457;50.960;6.830;2023-04-25T03:50:16;14.43;;;5.97;;
14732;SDS011;7457;50.960;6.830;2023-04-25T03:52:42;13.63;;;5.60;;
14732;SDS011;7457;50.960;6.830;2023-04-25T03:55:08;11.52;;;5.63;;
14732;SDS011;7457;50.960;6.830;2023-04-25T03:57:34;9.10;;;5.50;;
14732;SDS011;7457;50.960;6.830;2023-04-25T04:00:00;11.18;;;6.47;;
14732;SDS011;7457;50.960;6.830;2023-04-25T04:02:26;13.48;;;5.53;;
14732;SDS011;7457;50.960;6.830;2023-04-25T04:04:51;8.10;;;5.20;;
14732;SDS011;7457;50.960;6.830;2023-04-25T04:07:17;10.57;;;5.78;;
14732;SDS011;7457;50.960;6.830;2023-04-25T04:09:43;10.20;;;5.43;;
14732;SDS011;7457;50.960;6.830;2023-04-25T04:12:08;8.32;;;5.00;;
14732;SDS011;7457;50.960;6.830;2023-04-25T04:14:34;8.35;;;5.30;;
14732;SDS011;7457;50.960;6.830;2023-04-25T04:17:00;10.13;;;5.65;;
14732;SDS011;7457;50.960;6.830;2023-04-25T04:19:26;10.90;;;6.15;;
14732;SDS011;7457;50.960;6.830;2023-04-25T04:21:51;9.80;;;5.72;;
14732;SDS011;7457;50.960;6.830;2023-04-25T04:24:17;12.25;;;5.40;;
14732;SDS011;7457;50.960;6.830;2023-04-25T04:26:43;19.02;;;6.03;;
14732;SDS011;7457;50.960;6.830;2023-04-25T04:29:10;13.35;;;5.88;;
14732;SDS011;7457;50.960;6.830;2023-04-25T04:31:36;11.50;;;5.90;;
14732;SDS011;7457;50.960;6.830;2023-04-25T04:34:02;12.00;;;5.60;;
14732;SDS011;7457;50.960;6.830;2023-04-25T04:36:28;16.58;;;5.95;;
14732;SDS011;7457;50.960;6.830;2023-04-25T04:38:54;14.57;;;6.63;;
14732;SDS011;7457;50.960;6.830;2023-04-25T04:41:21;13.70;;;6.40;;
14732;SDS011;7457;50.960;6.830;2023-04-25T04:43:47;13.07;;;6.90;;
14732;SDS011;7457;50.960;6.830;2023-04-25T04:46:13;16.75;;;5.70;;
14732;SDS011;7457;50.960;6.830;2023-04-25T04:48:39;14.88;;;5.40;;
14732;SDS011;7457;50.960;6.830;2023-04-25T04:51:05;14.80;;;5.95;;
14732;SDS011;7457;50.960;6.830;2023-04-25T04:53:31;16.42;;;5.93;;
14732;SDS011;7457;50.960;6.830;2023-04-25T04:55:57;16.40;;;6.05;;
14732;SDS011;7457;50.960;6.830;2023-04-25T04:58:23;9.63;;;6.28;;
14732;SDS011;7457;50.960;6.830;2023-04-25T05:00:48;14.07;;;5.93;;
14732;SDS011;7457;50.960;6.830;2023-04-25T05:03:14;13.20;;;5.45;;
14732;SDS011;7457;50.960;6.830;2023-04-25T05:05:40;12.70;;;5.55;;
14732;SDS011;7457;50.960;6.830;2023-04-25T05:08:06;11.93;;;5.57;;
14732;SDS011;7457;50.960;6.830;2023-04-25T05:10:32;13.00;;;5.90;;
14732;SDS011;7457;50.960;6.830;2023-04-25T05:12:58;9.65;;;5.45;;
14732;SDS011;7457;50.960;6.830;2023-04-25T05:15:23;12.68;;;6.65;;
14732;SDS011;7457;50.960;6.830;2023-04-25T05:17:49;14.20;;;6.05;;
14732;SDS011;7457;50.960;6.830;2023-04-25T05:20:15;20.65;;;6.00;;
14732;SDS011;7457;50.960;6.830;2023-04-25T05:22:41;13.90;;;6.15;;
14732;SDS011;7457;50.960;6.830;2023-04-25T05:25:07;9.30;;;5.72;;
14732;SDS011;7457;50.960;6.830;2023-04-25T05:27:34;13.95;;;5.07;;
14732;SDS011;7457;50.960;6.830;2023-04-25T05:30:00;15.23;;;5.88;;
14732;SDS011;7457;50.960;6.830;2023-04-25T05:32:25;10.60;;;6.00;;
14732;SDS011;7457;50.960;6.830;2023-04-25T05:34:51;15.23;;;6.30;;
14732;SDS011;7457;50.960;6.830;2023-04-25T05:37:17;12.45;;;6.82;;
14732;SDS011;7457;50.960;6.830;2023-04-25T05:39:43;12.23;;;5.97;;
14732;SDS011;7457;50.960;6.830;2023-04-25T05:42:08;14.18;;;5.50;;
14732;SDS011;7457;50.960;6.830;2023-04-25T05:44:34;10.48;;;5.38;;
14732;SDS011;7457;50.960;6.830;2023-04-25T05:46:59;20.58;;;6.18;;
14732;SDS011;7457;50.960;6.830;2023-04-25T05:49:25;15.45;;;5.45;;
14732;SDS011;7457;50.960;6.830;2023-04-25T05:51:51;14.98;;;6.30;;
14732;SDS011;7457;50.960;6.830;2023-04-25T05:54:16;16.75;;;6.68;;
14732;SDS011;7457;50.960;6.830;2023-04-25T05:56:42;11.65;;;5.93;;
14732;SDS011;7457;50.960;6.830;2023-04-25T05:59:08;12.32;;;5.80;;
14732;SDS011;7457;50.960;6.830;2023-04-25T06:01:33;16.77;;;6.95;;
14732;SDS011;7457;50.960;6.830;2023-04-25T06:03:59;16.38;;;5.88;;
14732;SDS011;7457;50.960;6.830;2023-04-25T06:06:25;16.20;;;5.80;;
14732;SDS011;7457;50.960;6.830;2023-04-25T06:08:51;18.08;;;5.80;;
14732;SDS011;7457;50.960;6.830;2023-04-25T06:11:17;14.73;;;6.47;;
14732;SDS011;7457;50.960;6.830;2023-04-25T06:13:43;18.27;;;7.80;;
14732;SDS011;7457;50.960;6.830;2023-04-25T06:18:39;16.67;;;8.48;;
14732;SDS011;7457;50.960;6.830;2023-04-25T06:21:05;14.93;;;7.32;;
14732;SDS011;7457;50.960;6.830;2023-04-25T06:23:30;14.25;;;5.57;;
14732;SDS011;7457;50.960;6.830;2023-04-25T06:25:56;15.65;;;5.68;;
14732;SDS011;7457;50.960;6.830;2023-04-25T06:28:22;12.88;;;5.10;;
14732;SDS011;7457;50.960;6.830;2023-04-25T06:30:48;16.73;;;4.90;;
14732;SDS011;7457;50.960;6.830;2023-04-25T06:33:13;12.70;;;5.25;;
14732;SDS011;7457;50.960;6.830;2023-04-25T06:35:39;14.75;;;4.65;;
14732;SDS011;7457;50.960;6.830;2023-04-25T06:38:05;13.90;;;4.88;;
14732;SDS011;7457;50.960;6.830;2023-04-25T06:40:30;9.57;;;4.45;;
14732;SDS011;7457;50.960;6.830;2023-04-25T06:42:56;11.02;;;5.22;;
14732;SDS011;7457;50.960;6.830;2023-04-25T06:45:22;12.35;;;4.43;;
14732;SDS011;7457;50.960;6.830;2023-04-25T06:47:47;9.68;;;4.80;;
14732;SDS011;7457;50.960;6.830;2023-04-25T06:50:13;19.48;;;4.70;;
14732;SDS011;7457;50.960;6.830;2023-04-25T06:52:38;12.15;;;4.07;;
14732;SDS011;7457;50.960;6.830;2023-04-25T06:55:05;20.30;;;4.78;;
14732;SDS011;7457;50.960;6.830;2023-04-25T06:57:31;11.98;;;4.55;;
14732;SDS011;7457;50.960;6.830;2023-04-25T06:59:57;9.63;;;4.30;;
14732;SDS011;7457;50.960;6.830;2023-04-25T07:02:22;11.05;;;4.20;;
14732;SDS011;7457;50.960;6.830;2023-04-25T07:04:48;7.80;;;4.68;;
14732;SDS011;7457;50.960;6.830;2023-04-25T07:07:14;13.15;;;4.30;;
14732;SDS011;7457;50.960;6.830;2023-04-25T07:09:40;10.40;;;4.60;;
14732;SDS011;7457;50.960;6.830;2023-04-25T07:12:05;12.32;;;4.82;;
14732;SDS011;7457;50.960;6.830;2023-04-25T07:14:31;14.02;;;4.88;;
14732;SDS011;7457;50.960;6.830;2023-04-25T07:16:56;18.77;;;6.07;;
14732;SDS011;7457;50.960;6.830;2023-04-25T07:19:22;12.82;;;5.05;;
14732;SDS011;7457;50.960;6.830;2023-04-25T07:21:51;9.07;;;4.40;;
14732;SDS011;7457;50.960;6.830;2023-04-25T07:24:17;12.18;;;4.60;;
14732;SDS011;7457;50.960;6.830;2023-04-25T07:26:43;15.90;;;5.22;;
14732;SDS011;7457;50.960;6.830;2023-04-25T07:29:08;10.88;;;5.18;;
14732;SDS011;7457;50.960;6.830;2023-04-25T07:31:34;15.00;;;5.05;;
14732;SDS011;7457;50.960;6.830;2023-04-25T07:34:00;12.77;;;5.28;;
14732;SDS011;7457;50.960;6.830;2023-04-25T07:36:26;11.52;;;4.78;;
14732;SDS011;7457;50.960;6.830;2023-04-25T07:38:52;11.82;;;4.30;;
14732;SDS011;7457;50.960;6.830;2023-04-25T07:41:17;11.70;;;4.55;;
14732;SDS011;7457;50.960;6.830;2023-04-25T07:43:43;10.40;;;4.72;;
14732;SDS011;7457;50.960;6.830;2023-04-25T07:46:09;8.82;;;3.65;;
14732;SDS011;7457;50.960;6.830;2023-04-25T07:48:34;13.10;;;4.93;;
14732;SDS011;7457;50.960;6.830;2023-04-25T07:51:00;10.65;;;5.13;;
14732;SDS011;7457;50.960;6.830;2023-04-25T07:53:25;13.43;;;5.28;;
14732;SDS011;7457;50.960;6.830;2023-04-25T07:55:51;15.20;;;6.25;;
14732;SDS011;7457;50.960;6.830;2023-04-25T07:58:17;8.32;;;3.42;;
14732;SDS011;7457;50.960;6.830;2023-04-25T08:00:46;11.27;;;5.15;;
14732;SDS011;7457;50.960;6.830;2023-04-25T08:03:12;11.02;;;5.07;;
14732;SDS011;7457;50.960;6.830;2023-04-25T08:05:37;8.25;;;4.28;;
14732;SDS011;7457;50.960;6.830;2023-04-25T08:08:03;10.25;;;4.70;;
14732;SDS011;7457;50.960;6.830;2023-04-25T08:10:31;10.40;;;3.80;;
14732;SDS011;7457;50.960;6.830;2023-04-25T08:12:57;7.78;;;4.00;;
14732;SDS011;7457;50.960;6.830;2023-04-25T08:15:23;15.85;;;8.38;;
14732;SDS011;7457;50.960;6.830;2023-04-25T08:17:50;19.58;;;9.02;;
14732;SDS011;7457;50.960;6.830;2023-04-25T08:20:15;13.27;;;5.75;;
14732;SDS011;7457;50.960;6.830;2023-04-25T08:22:41;13.30;;;4.03;;
14732;SDS011;7457;50.960;6.830;2023-04-25T08:25:07;8.18;;;3.80;;
14732;SDS011;7457;50.960;6.830;2023-04-25T08:27:33;8.88;;;3.92;;
14732;SDS011;7457;50.960;6.830;2023-04-25T08:29:58;8.25;;;4.22;;
14732;SDS011;7457;50.960;6.830;2023-04-25T08:32:24;12.95;;;4.13;;
14732;SDS011;7457;50.960;6.830;2023-04-25T08:34:50;10.18;;;3.50;;
14732;SDS011;7457;50.960;6.830;2023-04-25T08:37:18;9.40;;;3.38;;
14732;SDS011;7457;50.960;6.830;2023-04-25T08:39:45;12.75;;;4.65;;
14732;SDS011;7457;50.960;6.830;2023-04-25T08:42:13;10.27;;;3.17;;
14732;SDS011;7457;50.960;6.830;2023-04-25T08:44:40;11.70;;;2.83;;
14732;SDS011;7457;50.960;6.830;2023-04-25T08:47:06;6.25;;;2.55;;
14732;SDS011;7457;50.960;6.830;2023-04-25T08:49:32;4.32;;;2.20;;
14732;SDS011;7457;50.960;6.830;2023-04-25T08:52:02;7.53;;;2.70;;
14732;SDS011;7457;50.960;6.830;2023-04-25T08:54:30;6.53;;;2.53;;
14732;SDS011;7457;50.960;6.830;2023-04-25T08:56:57;9.43;;;3.20;;
14732;SDS011;7457;50.960;6.830;2023-04-25T08:59:32;8.07;;;2.83;;
14732;SDS011;7457;50.960;6.830;2023-04-25T09:01:58;5.90;;;2.92;;
14732;SDS011;7457;50.960;6.830;2023-04-25T09:04:24;11.90;;;3.10;;
14732;SDS011;7457;50.960;6.830;2023-04-25T09:06:50;10.48;;;3.17;;
14732;SDS011;7457;50.960;6.830;2023-04-25T09:09:15;11.52;;;3.13;;
14732;SDS011;7457;50.960;6.830;2023-04-25T09:11:41;10.38;;;3.42;;
14732;SDS011;7457;50.960;6.830;2023-04-25T09:14:14;6.07;;;3.50;;
14732;SDS011;7457;50.960;6.830;2023-04-25T09:19:24;8.23;;;3.05;;
14732;SDS011;7457;50.960;6.830;2023-04-25T09:21:54;8.60;;;3.17;;
14732;SDS011;7457;50.960;6.830;2023-04-25T09:24:31;5.50;;;2.58;;
14732;SDS011;7457;50.960;6.830;2023-04-25T09:26:57;7.88;;;2.78;;
14732;SDS011;7457;50.960;6.830;2023-04-25T09:29:29;6.57;;;3.08;;
14732;SDS011;7457;50.960;6.830;2023-04-25T09:32:26;8.38;;;3.25;;
14732;SDS011;7457;50.960;6.830;2023-04-25T09:34:52;6.35;;;3.13;;
14732;SDS011;7457;50.960;6.830;2023-04-25T09:37:26;8.50;;;3.13;;
14732;SDS011;7457;50.960;6.830;2023-04-25T09:39:57;7.82;;;3.70;;
14732;SDS011;7457;50.960;6.830;2023-04-25T09:42:28;4.30;;;3.13;;
14732;SDS011;7457;50.960;6.830;2023-04-25T09:44:56;5.00;;;2.80;;
14732;SDS011;7457;50.960;6.830;2023-04-25T09:47:23;6.78;;;2.63;;
14732;SDS011;7457;50.960;6.830;2023-04-25T09:49:50;9.25;;;3.53;;
14732;SDS011;7457;50.960;6.830;2023-04-25T09:52:17;11.18;;;3.60;;
14732;SDS011;7457;50.960;6.830;2023-04-25T09:54:47;7.03;;;2.80;;
14732;SDS011;7457;50.960;6.830;2023-04-25T09:57:21;8.32;;;3.13;;
14732;SDS011;7457;50.960;6.830;2023-04-25T10:02:16;8.68;;;3.38;;
14732;SDS011;7457;50.960;6.830;2023-04-25T10:04:50;8.00;;;2.78;;
14732;SDS011;7457;50.960;6.830;2023-04-25T10:07:19;5.53;;;3.03;;
14732;SDS011;7457;50.960;6.830;2023-04-25T10:09:48;8.70;;;3.88;;
14732;SDS011;7457;50.960;6.830;2023-04-25T10:12:16;9.18;;;3.28;;
14732;SDS011;7457;50.960;6.830;2023-04-25T10:14:42;7.15;;;2.95;;
14732;SDS011;7457;50.960;6.830;2023-04-25T10:17:08;4.20;;;2.50;;
14732;SDS011;7457;50.960;6.830;2023-04-25T10:19:36;4.57;;;3.20;;
14732;SDS011;7457;50.960;6.830;2023-04-25T10:24:42;10.30;;;3.28;;
14732;SDS011;7457;50.960;6.830;2023-04-25T10:27:09;7.85;;;2.63;;
14732;SDS011;7457;50.960;6.830;2023-04-25T10:29:35;5.28;;;2.70;;
14732;SDS011;7457;50.960;6.830;2023-04-25T10:32:01;8.13;;;2.88;;
14732;SDS011;7457;50.960;6.830;2023-04-25T10:37:08;7.63;;;3.15;;
14732;SDS011;7457;50.960;6.830;2023-04-25T10:39:35;9.07;;;2.65;;
14732;SDS011;7457;50.960;6.830;2023-04-25T10:42:03;6.80;;;2.45;;
14732;SDS011;7457;50.960;6.830;2023-04-25T10:44:29;8.85;;;3.40;;
14732;SDS011;7457;50.960;6.830;2023-04-25T10:46:55;10.55;;;3.20;;
14732;SDS011;7457;50.960;6.830;2023-04-25T10:49:38;10.32;;;3.33;;
14732;SDS011;7457;50.960;6.830;2023-04-25T10:52:17;6.70;;;2.65;;
14732;SDS011;7457;50.960;6.830;2023-04-25T10:54:56;8.32;;;2.85;;
14732;SDS011;7457;50.960;6.830;2023-04-25T10:58:05;7.80;;;2.25;;
14732;SDS011;7457;50.960;6.830;2023-04-25T11:00:18;8.30;;;2.72;;
14732;SDS011;7457;50.960;6.830;2023-04-25T11:05:20;6.03;;;2.35;;
14732;SDS011;7457;50.960;6.830;2023-04-25T11:07:54;4.53;;;2.75;;
14732;SDS011;7457;50.960;6.830;2023-04-25T11:10:25;3.50;;;1.98;;
14732;SDS011;7457;50.960;6.830;2023-04-25T11:12:58;5.13;;;2.13;;
14732;SDS011;7457;50.960;6.830;2023-04-25T11:15:25;6.03;;;2.40;;
14732;SDS011;7457;50.960;6.830;2023-04-25T11:17:51;6.68;;;2.40;;
14732;SDS011;7457;50.960;6.830;2023-04-25T11:20:17;9.63;;;2.85;;
14732;SDS011;7457;50.960;6.830;2023-04-25T11:22:44;5.38;;;3.10;;
14732;SDS011;7457;50.960;6.830;2023-04-25T11:25:11;7.15;;;2.88;;
14732;SDS011;7457;50.960;6.830;2023-04-25T11:27:48;7.57;;;2.83;;
14732;SDS011;7457;50.960;6.830;2023-04-25T11:30:15;4.85;;;2.13;;
14732;SDS011;7457;50.960;6.830;2023-04-25T11:32:41;5.60;;;1.92;;
14732;SDS011;7457;50.960;6.830;2023-04-25T11:35:08;4.57;;;2.00;;
14732;SDS011;7457;50.960;6.830;2023-04-25T11:37:34;5.43;;;2.28;;
14732;SDS011;7457;50.960;6.830;2023-04-25T11:40:00;3.80;;;2.25;;
14732;SDS011;7457;50.960;6.830;2023-04-25T11:42:27;5.68;;;2.17;;
14732;SDS011;7457;50.960;6.830;2023-04-25T11:44:52;6.70;;;2.10;;
14732;SDS011;7457;50.960;6.830;2023-04-25T11:47:18;5.78;;;2.17;;
14732;SDS011;7457;50.960;6.830;2023-04-25T11:49:43;4.45;;;2.03;;
14732;SDS011;7457;50.960;6.830;2023-04-25T11:52:09;3.72;;;1.98;;
14732;SDS011;7457;50.960;6.830;2023-04-25T11:54:35;4.97;;;2.08;;
14732;SDS011;7457;50.960;6.830;2023-04-25T11:57:02;4.70;;;1.90;;
14732;SDS011;7457;50.960;6.830;2023-04-25T11:59:29;6.50;;;2.30;;
14732;SDS011;7457;50.960;6.830;2023-04-25T12:01:55;6.60;;;1.85;;
14732;SDS011;7457;50.960;6.830;2023-04-25T12:04:23;6.35;;;2.00;;
14732;SDS011;7457;50.960;6.830;2023-04-25T12:06:53;3.53;;;2.13;;
14732;SDS011;7457;50.960;6.830;2023-04-25T12:09:32;6.07;;;2.15;;
14732;SDS011;7457;50.960;6.830;2023-04-25T12:11:59;9.45;;;2.40;;
14732;SDS011;7457;50.960;6.830;2023-04-25T12:14:29;5.40;;;2.08;;
14732;SDS011;7457;50.960;6.830;2023-04-25T12:16:59;5.55;;;2.08;;
14732;SDS011;7457;50.960;6.830;2023-04-25T12:19:26;7.05;;;2.05;;
14732;SDS011;7457;50.960;6.830;2023-04-25T12:21:58;3.00;;;1.65;;
14732;SDS011;7457;50.960;6.830;2023-04-25T12:24:26;5.00;;;2.13;;
14732;SDS011;7457;50.960;6.830;2023-04-25T12:27:02;3.42;;;1.70;;
14732;SDS011;7457;50.960;6.830;2023-04-25T12:29:30;4.10;;;2.15;;
14732;SDS011;7457;50.960;6.830;2023-04-25T12:31:57;3.78;;;1.92;;
14732;SDS011;7457;50.960;6.830;2023-04-25T12:34:23;5.90;;;3.60;;
14732;SDS011;7457;50.960;6.830;2023-04-25T12:36:49;3.97;;;1.77;;
14732;SDS011;7457;50.960;6.830;2023-04-25T12:41:43;4.60;;;2.60;;
14732;SDS011;7457;50.960;6.830;2023-04-25T12:44:09;3.75;;;1.98;;
14732;SDS011;7457;50.960;6.830;2023-04-25T12:46:35;4.28;;;2.25;;
14732;SDS011;7457;50.960;6.830;2023-04-25T12:49:01;6.07;;;2.60;;
14732;SDS011;7457;50.960;6.830;2023-04-25T12:51:28;8.93;;;2.92;;
14732;SDS011;7457;50.960;6.830;2023-04-25T12:53:54;9.88;;;3.10;;
14732;SDS011;7457;50.960;6.830;2023-04-25T12:56:20;9.82;;;4.07;;
14732;SDS011;7457;50.960;6.830;2023-04-25T12:58:45;5.97;;;2.90;;
14732;SDS011;7457;50.960;6.830;2023-04-25T13:01:13;4.90;;;2.85;;
14732;SDS011;7457;50.960;6.830;2023-04-25T13:03:39;5.03;;;2.63;;
14732;SDS011;7457;50.960;6.830;2023-04-25T13:06:05;6.75;;;2.90;;
14732;SDS011;7457;50.960;6.830;2023-04-25T13:08:31;5.40;;;2.85;;
14732;SDS011;7457;50.960;6.830;2023-04-25T13:10:58;7.45;;;3.30;;
14732;SDS011;7457;50.960;6.830;2023-04-25T13:13:23;7.22;;;2.45;;
14732;SDS011;7457;50.960;6.830;2023-04-25T13:15:49;4.65;;;2.47;;
14732;SDS011;7457;50.960;6.830;2023-04-25T13:18:15;4.30;;;2.67;;
14732;SDS011;7457;50.960;6.830;2023-04-25T13:20:41;6.45;;;2.13;;
14732;SDS011;7457;50.960;6.830;2023-04-25T13:23:06;4.63;;;2.42;;
14732;SDS011;7457;50.960;6.830;2023-04-25T13:25:32;6.75;;;2.20;;
14732;SDS011;7457;50.960;6.830;2023-04-25T13:27:58;2.55;;;2.00;;
14732;SDS011;7457;50.960;6.830;2023-04-25T13:30:23;4.68;;;2.28;;
14732;SDS011;7457;50.960;6.830;2023-04-25T13:32:49;4.63;;;2.42;;
14732;SDS011;7457;50.960;6.830;2023-04-25T13:35:14;4.05;;;2.03;;
14732;SDS011;7457;50.960;6.830;2023-04-25T13:37:42;4.45;;;2.10;;
14732;SDS011;7457;50.960;6.830;2023-04-25T13:40:08;3.58;;;2.40;;
14732;SDS011;7457;50.960;6.830;2023-04-25T13:42:36;3.92;;;2.03;;
14732;SDS011;7457;50.960;6.830;2023-04-25T13:45:03;2.67;;;2.00;;
14732;SDS011;7457;50.960;6.830;2023-04-25T13:47:28;4.47;;;2.60;;
14732;SDS011;7457;50.960;6.830;2023-04-25T13:49:55;2.58;;;2.00;;
14732;SDS011;7457;50.960;6.830;2023-04-25T13:52:21;2.22;;;1.60;;
14732;SDS011;7457;50.960;6.830;2023-04-25T13:54:48;2.33;;;1.40;;
14732;SDS011;7457;50.960;6.830;2023-04-25T13:57:14;4.43;;;2.67;;
14732;SDS011;7457;50.960;6.830;2023-04-25T13:59:40;3.38;;;1.92;;
14732;SDS011;7457;50.960;6.830;2023-04-25T14:02:06;4.38;;;2.03;;
14732;SDS011;7457;50.960;6.830;2023-04-25T14:04:32;2.17;;;1.40;;
14732;SDS011;7457;50.960;6.830;2023-04-25T14:06:58;3.92;;;1.70;;
14732;SDS011;7457;50.960;6.830;2023-04-25T14:09:24;3.97;;;1.80;;
14732;SDS011;7457;50.960;6.830;2023-04-25T14:11:52;4.72;;;1.75;;
14732;SDS011;7457;50.960;6.830;2023-04-25T14:14:18;2.03;;;1.70;;
14732;SDS011;7457;50.960;6.830;2023-04-25T14:16:44;5.50;;;1.85;;
14732;SDS011;7457;50.960;6.830;2023-04-25T14:19:11;4.82;;;1.70;;
14732;SDS011;7457;50.960;6.830;2023-04-25T14:21:36;1.45;;;1.08;;
14732;SDS011;7457;50.960;6.830;2023-04-25T14:24:02;4.63;;;1.77;;
14732;SDS011;7457;50.960;6.830;2023-04-25T14:26:28;2.97;;;2.13;;
14732;SDS011;7457;50.960;6.830;2023-04-25T14:28:53;3.50;;;1.58;;
14732;SDS011;7457;50.960;6.830;2023-04-25T14:31:19;1.83;;;1.45;;
14732;SDS011;7457;50.960;6.830;2023-04-25T14:33:45;4.57;;;1.77;;
14732;SDS011;7457;50.960;6.830;2023-04-25T14:36:11;3.55;;;1.83;;
14732;SDS011;7457;50.960;6.830;2023-04-25T14:38:37;5.65;;;2.63;;
14732;SDS011;7457;50.960;6.830;2023-04-25T14:41:03;2.92;;;2.00;;
14732;SDS011;7457;50.960;6.830;2023-04-25T14:43:28;3.88;;;2.30;;
14732;SDS011;7457;50.960;6.830;2023-04-25T14:45:54;5.95;;;2.35;;
14732;SDS011;7457;50.960;6.830;2023-04-25T14:48:20;5.70;;;2.00;;
14732;SDS011;7457;50.960;6.830;2023-04-25T14:50:46;4.63;;;2.70;;
14732;SDS011;7457;50.960;6.830;2023-04-25T14:53:12;5.53;;;2.50;;
14732;SDS011;7457;50.960;6.830;2023-04-25T14:55:38;3.88;;;2.20;;
14732;SDS011;7457;50.960;6.830;2023-04-25T14:58:03;4.93;;;2.53;;
14732;SDS011;7457;50.960;6.830;2023-04-25T15:00:29;5.80;;;2.33;;
14732;SDS011;7457;50.960;6.830;2023-04-25T15:02:56;4.90;;;1.98;;
14732;SDS011;7457;50.960;6.830;2023-04-25T15:05:23;5.05;;;2.33;;
14732;SDS011;7457;50.960;6.830;2023-04-25T15:07:49;3.25;;;2.08;;
14732;SDS011;7457;50.960;6.830;2023-04-25T15:10:16;6.80;;;2.30;;